Two Story, Arizona
Current Conditions -  °F | °C
As of 5:53 PM on Tuesday 21 Oct 2014 (Local Time) from KGUP Reporting Station
Clear Clear  
Wind Chill: 62°   Ceiling: Unl
Heat Index: 62°   Visibility: 10mi
Dew Point: 44°   Wind: 14mph
Humidity: 52%   Direction: 70°ENE
Pressure: 30.07"   Gusts: NA
Location:  35.6556°N, 109.102°W
Report Text: KGUP 212353Z AUTO 07012KT 10SM CLR 17/07 A3007 RMK AO2 SLP109 T01670067 10194 20150 55006
Loading
Personal Weather Stations






























Interactive Weather Map
Tropical Storm Tracking
New forecast layout! Learn more

10-Day Weather Forecast

Advertisements
Track Severe Weather on mobile